createdAt,value
2023-01-13T00:00:05.555Z,0.00
2023-01-13T00:01:05.405Z,0.00
2023-01-13T00:02:05.486Z,0.00
2023-01-13T00:03:05.396Z,0.00
2023-01-13T00:04:05.377Z,0.00
2023-01-13T00:05:05.454Z,0.00
2023-01-13T00:06:05.359Z,0.00
2023-01-13T00:07:05.354Z,0.00
2023-01-13T00:08:06.338Z,0.00
2023-01-13T00:09:05.335Z,0.00
2023-01-13T00:10:06.293Z,0.00
2023-01-13T00:11:05.292Z,0.00
2023-01-13T00:12:05.302Z,0.00
2023-01-13T00:13:05.255Z,0.00
2023-01-13T00:14:05.256Z,0.00
2023-01-13T00:15:05.254Z,0.00
2023-01-13T00:16:05.319Z,0.00
2023-01-13T00:17:05.271Z,0.00
2023-01-13T00:18:06.210Z,0.00
2023-01-13T00:19:06.179Z,0.00
2023-01-13T00:20:05.193Z,0.00
2023-01-13T00:21:05.199Z,0.00
2023-01-13T00:22:05.150Z,0.00
2023-01-13T00:23:06.207Z,0.00
2023-01-13T00:24:05.144Z,0.00
2023-01-13T00:25:05.136Z,0.00
2023-01-13T00:26:06.138Z,0.00
2023-01-13T00:27:05.107Z,0.00
2023-01-13T00:28:06.110Z,0.00
2023-01-13T00:29:05.467Z,0.00
2023-01-13T00:30:05.065Z,0.00
2023-01-13T00:31:05.162Z,0.00
2023-01-13T00:32:05.094Z,0.00
2023-01-13T00:33:05.043Z,0.00
2023-01-13T00:34:05.037Z,0.00
2023-01-13T00:35:05.035Z,0.00
2023-01-13T00:36:04.999Z,0.00
2023-01-13T00:37:05.011Z,0.00
2023-01-13T00:38:05.024Z,0.00
2023-01-13T00:39:04.971Z,0.00
2023-01-13T00:40:05.980Z,0.00
2023-01-13T00:41:05.961Z,0.00
2023-01-13T00:42:04.942Z,0.00
2023-01-13T00:43:04.942Z,0.00
2023-01-13T00:44:04.976Z,0.00
2023-01-13T00:45:04.901Z,0.00
2023-01-13T00:46:05.004Z,0.00
2023-01-13T00:47:04.892Z,0.00
2023-01-13T00:48:05.909Z,0.00
2023-01-13T00:49:04.880Z,0.00
2023-01-13T00:50:05.897Z,0.00
2023-01-13T00:51:05.903Z,0.00
2023-01-13T00:52:04.829Z,0.00
2023-01-13T00:53:04.811Z,0.00
2023-01-13T00:54:05.820Z,0.00
2023-01-13T00:55:04.813Z,0.00
2023-01-13T00:56:04.821Z,0.00
2023-01-13T00:57:04.791Z,0.00
2023-01-13T00:58:04.757Z,0.00
2023-01-13T00:59:05.797Z,0.00
2023-01-13T01:00:04.770Z,0.00
2023-01-13T01:01:04.921Z,0.00
2023-01-13T01:02:04.891Z,0.00
2023-01-13T01:03:05.740Z,0.00
2023-01-13T01:04:05.698Z,0.00
2023-01-13T01:05:04.683Z,0.00
2023-01-13T01:06:04.712Z,0.00
2023-01-13T01:07:04.680Z,0.00
2023-01-13T01:08:04.702Z,0.00
2023-01-13T01:09:04.641Z,0.00
2023-01-13T01:10:04.642Z,0.00
2023-01-13T01:11:04.660Z,0.00
2023-01-13T01:12:04.638Z,0.00
2023-01-13T01:13:04.592Z,0.00
2023-01-13T01:14:04.628Z,0.00
2023-01-13T01:15:04.595Z,0.00
2023-01-13T01:16:04.682Z,0.00
2023-01-13T01:17:04.559Z,0.00
2023-01-13T01:18:04.541Z,0.00
2023-01-13T01:19:04.558Z,0.00
2023-01-13T01:20:04.527Z,0.00
2023-01-13T01:21:05.509Z,0.00
2023-01-13T01:22:05.507Z,0.00
2023-01-13T01:23:04.500Z,0.00
2023-01-13T01:24:04.496Z,0.00
2023-01-13T01:25:04.504Z,0.00
2023-01-13T01:26:05.472Z,0.00
2023-01-13T01:27:04.435Z,0.00
2023-01-13T01:28:04.475Z,0.00
2023-01-13T01:29:04.442Z,0.00
2023-01-13T01:30:04.424Z,0.00
2023-01-13T01:31:04.419Z,0.00
2023-01-13T01:32:04.397Z,0.00
2023-01-13T01:33:04.388Z,0.00
2023-01-13T01:34:04.419Z,0.00
2023-01-13T01:35:04.361Z,0.00
2023-01-13T01:36:04.368Z,0.00
2023-01-13T01:37:04.330Z,0.00
2023-01-13T01:38:04.333Z,0.00
2023-01-13T01:39:04.326Z,0.00
2023-01-13T01:40:04.324Z,0.00
2023-01-13T01:41:04.297Z,0.00
2023-01-13T01:42:04.303Z,0.00
2023-01-13T01:43:04.324Z,0.00
2023-01-13T01:44:04.306Z,0.00
2023-01-13T01:45:05.260Z,0.00
2023-01-13T01:46:04.231Z,0.00
2023-01-13T01:47:04.309Z,0.00
2023-01-13T01:48:04.219Z,0.00
2023-01-13T01:49:04.199Z,0.00
2023-01-13T01:50:04.213Z,0.00
2023-01-13T01:51:04.202Z,0.00
2023-01-13T01:52:04.214Z,0.00
2023-01-13T01:53:04.185Z,0.00
2023-01-13T01:54:04.141Z,0.00
2023-01-13T01:55:04.132Z,0.00
2023-01-13T01:56:04.133Z,0.00
2023-01-13T01:57:05.150Z,0.00
2023-01-13T01:58:05.098Z,0.00
2023-01-13T01:59:04.080Z,0.00
2023-01-13T02:00:04.081Z,0.00
2023-01-13T02:01:04.293Z,0.00
2023-01-13T02:02:04.151Z,0.00
2023-01-13T02:03:04.074Z,0.00
2023-01-13T02:04:04.056Z,0.00
2023-01-13T02:05:04.019Z,0.00
2023-01-13T02:06:04.026Z,0.00
2023-01-13T02:07:03.996Z,0.00
2023-01-13T02:08:04.033Z,0.00
2023-01-13T02:09:03.975Z,0.00
2023-01-13T02:10:04.964Z,0.00
2023-01-13T02:11:03.952Z,0.00
2023-01-13T02:12:03.948Z,0.00
2023-01-13T02:13:03.928Z,0.00
2023-01-13T02:14:03.934Z,0.00
2023-01-13T02:15:03.908Z,0.00
2023-01-13T02:16:03.951Z,0.00
2023-01-13T02:17:03.884Z,0.00
2023-01-13T02:18:03.878Z,0.00
2023-01-13T02:19:03.901Z,0.00
2023-01-13T02:20:03.878Z,0.00
2023-01-13T02:21:03.847Z,0.00
2023-01-13T02:22:03.843Z,0.00
2023-01-13T02:23:04.849Z,0.00
2023-01-13T02:24:03.832Z,0.00
2023-01-13T02:25:03.806Z,0.00
2023-01-13T02:26:03.802Z,0.00
2023-01-13T02:27:04.767Z,0.00
2023-01-13T02:28:04.806Z,0.00
2023-01-13T02:29:03.787Z,0.00
2023-01-13T02:30:03.766Z,0.00
2023-01-13T02:31:03.729Z,0.00
2023-01-13T02:32:03.724Z,0.00
2023-01-13T02:33:03.717Z,0.00
2023-01-13T02:34:03.700Z,0.00
2023-01-13T02:35:03.745Z,0.00
2023-01-13T02:36:03.684Z,0.00
2023-01-13T02:37:03.669Z,0.00
2023-01-13T02:38:03.655Z,0.00
2023-01-13T02:39:03.659Z,0.00
2023-01-13T02:40:03.631Z,0.00
2023-01-13T02:41:03.636Z,0.00
2023-01-13T02:42:04.606Z,0.00
2023-01-13T02:43:03.599Z,0.00
2023-01-13T02:44:03.591Z,0.00
2023-01-13T02:45:03.615Z,0.00
2023-01-13T02:46:03.644Z,0.00
2023-01-13T02:47:03.568Z,0.00
2023-01-13T02:48:03.555Z,0.00
2023-01-13T02:49:03.518Z,0.00
2023-01-13T02:50:03.534Z,0.00
2023-01-13T02:51:04.514Z,0.00
2023-01-13T02:52:03.524Z,0.00
2023-01-13T02:53:03.490Z,0.00
2023-01-13T02:54:03.492Z,0.00
2023-01-13T02:55:03.494Z,0.00
2023-01-13T02:56:03.486Z,0.00
2023-01-13T02:57:03.458Z,0.00
2023-01-13T02:58:03.447Z,0.00
2023-01-13T02:59:03.438Z,0.00
2023-01-13T03:00:03.412Z,0.00
2023-01-13T03:01:03.574Z,0.00
2023-01-13T03:02:04.620Z,0.00
2023-01-13T03:03:04.371Z,0.00
2023-01-13T03:04:03.371Z,0.00
2023-01-13T03:05:03.377Z,0.00
2023-01-13T03:06:03.362Z,0.00
2023-01-13T03:07:03.332Z,0.00
2023-01-13T03:08:03.354Z,0.00
2023-01-13T03:09:03.343Z,0.00
2023-01-13T03:10:03.296Z,0.00
2023-01-13T03:11:03.320Z,0.00
2023-01-13T03:12:03.280Z,0.00
2023-01-13T03:13:03.272Z,0.00
2023-01-13T03:14:04.294Z,0.00
2023-01-13T03:15:03.294Z,0.00
2023-01-13T03:16:03.260Z,0.00
2023-01-13T03:17:03.229Z,0.00
2023-01-13T03:18:04.238Z,0.00
2023-01-13T03:19:03.216Z,0.00
2023-01-13T03:20:03.205Z,0.00
2023-01-13T03:21:03.227Z,0.00
2023-01-13T03:22:03.169Z,0.00
2023-01-13T03:23:03.185Z,0.00
2023-01-13T03:24:03.164Z,0.00
2023-01-13T03:25:03.141Z,0.00
2023-01-13T03:26:03.149Z,0.00
2023-01-13T03:27:03.111Z,0.00
2023-01-13T03:28:03.134Z,0.00
2023-01-13T03:29:04.094Z,0.00
2023-01-13T03:30:03.092Z,0.00
2023-01-13T03:31:03.160Z,0.00
2023-01-13T03:32:03.080Z,0.00
2023-01-13T03:33:03.045Z,0.00
2023-01-13T03:34:04.077Z,0.00
2023-01-13T03:35:03.024Z,0.00
2023-01-13T03:36:03.031Z,0.00
2023-01-13T03:37:03.987Z,0.00
2023-01-13T03:38:03.029Z,0.00
2023-01-13T03:39:04.002Z,0.00
2023-01-13T03:40:03.021Z,0.00
2023-01-13T03:41:02.998Z,0.00
2023-01-13T03:42:02.945Z,0.00
2023-01-13T03:43:02.997Z,0.00
2023-01-13T03:44:03.935Z,0.00
2023-01-13T03:45:03.922Z,0.00
2023-01-13T03:46:02.975Z,0.00
2023-01-13T03:47:02.895Z,0.00
2023-01-13T03:48:02.923Z,0.00
2023-01-13T03:49:03.876Z,0.00
2023-01-13T03:50:02.870Z,0.00
2023-01-13T03:51:02.849Z,0.00
2023-01-13T03:52:02.847Z,0.00
2023-01-13T03:53:02.823Z,0.00
2023-01-13T03:54:02.887Z,0.00
2023-01-13T03:55:02.796Z,0.00
2023-01-13T03:56:03.811Z,0.00
2023-01-13T03:57:02.810Z,0.00
2023-01-13T03:58:02.799Z,0.00
2023-01-13T03:59:02.762Z,0.00
2023-01-13T04:00:02.761Z,0.00
2023-01-13T04:01:02.869Z,0.00
2023-01-13T04:02:04.003Z,0.00
2023-01-13T04:03:03.722Z,0.00
2023-01-13T04:04:02.741Z,0.00
2023-01-13T04:05:02.692Z,0.00
2023-01-13T04:06:02.707Z,0.00
2023-01-13T04:07:02.708Z,0.00
2023-01-13T04:08:02.672Z,0.00
2023-01-13T04:09:02.641Z,0.00
2023-01-13T04:10:02.658Z,0.00
2023-01-13T04:11:02.654Z,0.00
2023-01-13T04:12:02.620Z,0.00
2023-01-13T04:13:02.794Z,0.00
2023-01-13T04:14:02.629Z,0.00
2023-01-13T04:15:02.678Z,0.00
2023-01-13T04:16:02.595Z,0.00
2023-01-13T04:17:02.576Z,0.00
2023-01-13T04:18:03.532Z,0.00
2023-01-13T04:19:02.523Z,0.00
2023-01-13T04:20:02.555Z,0.00
2023-01-13T04:21:03.525Z,0.00
2023-01-13T04:22:02.492Z,0.00
2023-01-13T04:23:02.494Z,0.00
2023-01-13T04:24:02.484Z,0.00
2023-01-13T04:25:02.511Z,0.00
2023-01-13T04:26:02.467Z,0.00
2023-01-13T04:27:02.444Z,0.00
2023-01-13T04:28:03.439Z,0.00
2023-01-13T04:29:02.444Z,0.00
2023-01-13T04:30:02.405Z,0.00
2023-01-13T04:31:02.511Z,0.00
2023-01-13T04:32:02.418Z,0.00
2023-01-13T04:33:02.399Z,0.00
2023-01-13T04:34:02.395Z,0.00
2023-01-13T04:35:03.343Z,0.00
2023-01-13T04:36:02.342Z,0.00
2023-01-13T04:37:03.361Z,0.00
2023-01-13T04:38:02.339Z,0.00
2023-01-13T04:39:02.319Z,0.00
2023-01-13T04:40:02.315Z,0.00
2023-01-13T04:41:02.312Z,0.00
2023-01-13T04:42:02.291Z,0.00
2023-01-13T04:43:02.284Z,0.00
2023-01-13T04:44:02.265Z,0.00
2023-01-13T04:45:02.259Z,0.00
2023-01-13T04:46:02.286Z,0.00
2023-01-13T04:47:02.226Z,0.00
2023-01-13T04:48:03.298Z,0.00
2023-01-13T04:49:02.224Z,0.00
2023-01-13T04:50:03.225Z,0.00
2023-01-13T04:51:03.168Z,0.00
2023-01-13T04:52:02.181Z,0.00
2023-01-13T04:53:02.152Z,0.00
2023-01-13T04:54:02.153Z,0.00
2023-01-13T04:55:02.225Z,0.00
2023-01-13T04:56:02.147Z,0.00
2023-01-13T04:57:02.132Z,0.00
2023-01-13T04:58:02.110Z,0.00
2023-01-13T04:59:02.090Z,0.00
2023-01-13T05:00:03.128Z,0.00
2023-01-13T05:01:02.140Z,0.00
2023-01-13T05:02:02.124Z,0.00
2023-01-13T05:03:02.049Z,0.00
2023-01-13T05:04:02.020Z,0.00
2023-01-13T05:05:09.908Z,0.00
2023-01-13T05:06:02.047Z,0.00
2023-01-13T05:07:03.007Z,0.00
2023-01-13T05:08:01.996Z,0.00
2023-01-13T05:09:01.977Z,0.00
2023-01-13T05:10:01.969Z,0.00
2023-01-13T05:11:01.974Z,0.00
2023-01-13T05:12:02.943Z,0.00
2023-01-13T05:13:01.935Z,0.00
2023-01-13T05:14:01.938Z,0.00
2023-01-13T05:15:01.909Z,0.00
2023-01-13T05:16:02.074Z,0.00
2023-01-13T05:17:01.912Z,0.00
2023-01-13T05:18:01.887Z,0.00
2023-01-13T05:19:02.921Z,0.00
2023-01-13T05:20:02.875Z,0.00
2023-01-13T05:21:01.883Z,0.00
2023-01-13T05:22:01.839Z,0.00
2023-01-13T05:23:02.832Z,0.00
2023-01-13T05:24:02.804Z,0.00
2023-01-13T05:25:01.809Z,0.00
2023-01-13T05:26:02.804Z,0.00
2023-01-13T05:27:01.797Z,0.00
2023-01-13T05:28:01.780Z,0.00
2023-01-13T05:29:02.743Z,0.00
2023-01-13T05:30:01.776Z,0.00
2023-01-13T05:31:01.855Z,0.00
2023-01-13T05:32:01.757Z,0.00
2023-01-13T05:33:01.735Z,0.00
2023-01-13T05:34:01.699Z,0.00
2023-01-13T05:35:01.683Z,0.00
2023-01-13T05:36:02.686Z,0.00
2023-01-13T05:37:01.668Z,0.00
2023-01-13T05:38:01.665Z,0.00
2023-01-13T05:39:02.637Z,0.00
2023-01-13T05:40:01.703Z,0.00
2023-01-13T05:41:01.634Z,0.00
2023-01-13T05:42:01.643Z,0.00
2023-01-13T05:43:02.590Z,0.00
2023-01-13T05:44:01.626Z,0.00
2023-01-13T05:45:01.577Z,0.00
2023-01-13T05:46:01.785Z,0.00
2023-01-13T05:47:01.562Z,0.00
2023-01-13T05:48:01.595Z,0.00
2023-01-13T05:49:01.567Z,0.00
2023-01-13T05:50:01.550Z,0.00
2023-01-13T05:51:01.561Z,0.00
2023-01-13T05:52:01.531Z,0.00
2023-01-13T05:53:01.491Z,0.00
2023-01-13T05:54:01.497Z,0.00
2023-01-13T05:55:01.499Z,0.00
2023-01-13T05:56:01.463Z,0.00
2023-01-13T05:57:01.453Z,0.00
2023-01-13T05:58:02.436Z,0.00
2023-01-13T05:59:01.431Z,0.00
2023-01-13T06:00:02.449Z,0.00
2023-01-13T06:01:01.521Z,0.00
2023-01-13T06:02:01.382Z,0.00
2023-01-13T06:03:01.416Z,0.00
2023-01-13T06:04:01.487Z,0.00
2023-01-13T06:05:01.364Z,0.00
2023-01-13T06:06:01.358Z,0.00
2023-01-13T06:07:01.348Z,0.00
2023-01-13T06:08:01.325Z,0.00
2023-01-13T06:09:01.328Z,0.00
2023-01-13T06:10:02.296Z,0.00
2023-01-13T06:11:01.333Z,0.00
2023-01-13T06:12:01.303Z,0.00
2023-01-13T06:13:01.279Z,0.00
2023-01-13T06:14:01.248Z,0.00
2023-01-13T06:15:01.249Z,0.00
2023-01-13T06:16:01.310Z,0.00
2023-01-13T06:17:02.241Z,0.00
2023-01-13T06:18:02.233Z,0.00
2023-01-13T06:19:01.207Z,0.00
2023-01-13T06:20:01.228Z,0.00
2023-01-13T06:21:01.183Z,0.00
2023-01-13T06:22:01.164Z,0.00
2023-01-13T06:23:01.241Z,0.00
2023-01-13T06:24:01.155Z,0.00
2023-01-13T06:25:01.153Z,0.00
2023-01-13T06:26:01.171Z,0.00
2023-01-13T06:27:01.108Z,0.00
2023-01-13T06:28:01.107Z,0.00
2023-01-13T06:29:02.104Z,0.00
2023-01-13T06:30:01.082Z,0.00
2023-01-13T06:31:01.071Z,0.00
2023-01-13T06:32:01.091Z,0.00
2023-01-13T06:33:01.043Z,0.00
2023-01-13T06:34:01.024Z,0.00
2023-01-13T06:35:03.714Z,0.00
2023-01-13T06:36:01.058Z,0.00
2023-01-13T06:37:01.026Z,0.00
2023-01-13T06:38:01.002Z,0.00
2023-01-13T06:39:00.973Z,0.00
2023-01-13T06:40:00.995Z,0.00
2023-01-13T06:41:01.986Z,0.00
2023-01-13T06:42:00.965Z,0.00
2023-01-13T06:43:00.935Z,0.00
2023-01-13T06:44:00.923Z,0.00
2023-01-13T06:45:00.920Z,0.00
2023-01-13T06:46:00.979Z,0.00
2023-01-13T06:47:00.929Z,0.00
2023-01-13T06:48:00.912Z,0.00
2023-01-13T06:49:00.901Z,0.00
2023-01-13T06:50:00.850Z,0.00
2023-01-13T06:51:00.860Z,0.00
2023-01-13T06:52:00.864Z,0.00
2023-01-13T06:53:00.838Z,0.00
2023-01-13T06:54:01.861Z,0.00
2023-01-13T06:55:00.794Z,0.00
2023-01-13T06:56:00.815Z,0.00
2023-01-13T06:57:00.798Z,0.00
2023-01-13T06:58:00.760Z,0.00
2023-01-13T06:59:00.777Z,0.00
2023-01-13T07:00:00.773Z,0.00
2023-01-13T07:01:00.836Z,0.00
2023-01-13T07:02:00.883Z,0.00
2023-01-13T07:03:00.808Z,0.00
2023-01-13T07:04:01.734Z,0.00
2023-01-13T07:05:00.711Z,0.00
2023-01-13T07:06:00.714Z,0.00
2023-01-13T07:07:00.655Z,0.00
2023-01-13T07:08:00.691Z,0.00
2023-01-13T07:09:00.654Z,0.00
2023-01-13T07:10:01.671Z,0.00
2023-01-13T07:11:00.644Z,0.00
2023-01-13T07:12:00.661Z,4.00
2023-01-13T07:13:00.603Z,4.00
2023-01-13T07:14:00.610Z,4.00
2023-01-13T07:15:01.589Z,4.00
2023-01-13T07:16:00.672Z,4.00
2023-01-13T07:17:01.631Z,0.00
2023-01-13T07:18:00.539Z,4.00
2023-01-13T07:19:00.568Z,4.00
2023-01-13T07:20:00.558Z,4.00
2023-01-13T07:21:00.549Z,4.00
2023-01-13T07:22:00.521Z,4.00
2023-01-13T07:23:00.538Z,4.00
2023-01-13T07:24:00.502Z,4.00
2023-01-13T07:25:00.557Z,4.00
2023-01-13T07:26:00.459Z,4.00
2023-01-13T07:27:01.466Z,0.00
2023-01-13T07:28:00.448Z,4.00
2023-01-13T07:29:00.423Z,4.00
2023-01-13T07:30:00.575Z,4.00
2023-01-13T07:31:00.404Z,8.00
2023-01-13T07:32:00.496Z,4.00
2023-01-13T07:33:00.379Z,4.00
2023-01-13T07:34:01.379Z,8.00
2023-01-13T07:35:00.367Z,8.00
2023-01-13T07:36:00.355Z,8.00
2023-01-13T07:37:00.325Z,8.00
2023-01-13T07:38:00.326Z,8.00
2023-01-13T07:39:00.325Z,8.00
2023-01-13T07:40:01.327Z,12.00
2023-01-13T07:41:00.299Z,12.00
2023-01-13T07:42:00.286Z,12.00
2023-01-13T07:43:00.291Z,16.00
2023-01-13T07:44:00.388Z,16.00
2023-01-13T07:45:01.234Z,20.00
2023-01-13T07:46:00.302Z,16.00
2023-01-13T07:47:01.226Z,24.00
2023-01-13T07:48:00.224Z,32.00
2023-01-13T07:49:00.245Z,40.00
2023-01-13T07:50:01.192Z,44.00
2023-01-13T07:51:00.199Z,48.00
2023-01-13T07:52:00.163Z,44.00
2023-01-13T07:53:00.149Z,44.00
2023-01-13T07:54:00.148Z,44.00
2023-01-13T07:55:01.170Z,44.00
2023-01-13T07:56:00.154Z,36.00
2023-01-13T07:57:00.127Z,32.00
2023-01-13T07:58:00.165Z,28.00
2023-01-13T07:59:01.098Z,24.00
2023-01-13T08:00:01.078Z,24.00
2023-01-13T08:01:00.229Z,28.00
2023-01-13T08:02:00.391Z,32.00
2023-01-13T08:03:00.178Z,32.00
2023-01-13T08:04:00.043Z,36.00
2023-01-13T08:05:00.042Z,40.00
2023-01-13T08:06:01.012Z,44.00
2023-01-13T08:06:59.991Z,48.00
2023-01-13T08:08:00.008Z,56.00
2023-01-13T08:09:00.003Z,56.00
2023-01-13T08:09:59.973Z,60.00
2023-01-13T08:10:59.963Z,60.00
2023-01-13T08:12:00.974Z,60.00
2023-01-13T08:12:59.967Z,60.00
2023-01-13T08:13:59.936Z,60.00
2023-01-13T08:14:59.953Z,56.00
2023-01-13T08:15:59.923Z,56.00
2023-01-13T08:16:59.916Z,56.00
2023-01-13T08:17:59.892Z,60.00
2023-01-13T08:18:59.891Z,64.00
2023-01-13T08:19:59.892Z,72.00
2023-01-13T08:20:59.862Z,84.00
2023-01-13T08:21:59.830Z,88.00
2023-01-13T08:23:00.817Z,100.00
2023-01-13T08:24:00.832Z,104.00
2023-01-13T08:24:59.827Z,108.00
2023-01-13T08:25:59.820Z,108.00
2023-01-13T08:26:59.785Z,104.00
2023-01-13T08:28:00.847Z,96.00
2023-01-13T08:28:59.771Z,88.00
2023-01-13T08:29:59.772Z,76.00
2023-01-13T08:30:59.769Z,68.00
2023-01-13T08:31:59.733Z,60.00
2023-01-13T08:32:59.709Z,60.00
2023-01-13T08:33:59.712Z,68.00
2023-01-13T08:35:00.697Z,76.00
2023-01-13T08:35:59.719Z,76.00
2023-01-13T08:36:59.680Z,72.00
2023-01-13T08:37:59.671Z,72.00
2023-01-13T08:38:59.643Z,68.00
2023-01-13T08:39:59.643Z,64.00
2023-01-13T08:40:59.651Z,72.00
2023-01-13T08:41:59.649Z,76.00
2023-01-13T08:42:59.625Z,80.00
2023-01-13T08:43:59.605Z,80.00
2023-01-13T08:44:59.621Z,76.00
2023-01-13T08:45:59.647Z,68.00
2023-01-13T08:46:59.565Z,68.00
2023-01-13T08:47:59.595Z,64.00
2023-01-13T08:49:00.529Z,64.00
2023-01-13T08:49:59.563Z,68.00
2023-01-13T08:50:59.521Z,68.00
2023-01-13T08:51:59.507Z,76.00
2023-01-13T08:52:59.485Z,92.00
2023-01-13T08:53:59.503Z,100.00
2023-01-13T08:54:59.491Z,108.00
2023-01-13T08:55:59.487Z,108.00
2023-01-13T08:56:59.521Z,104.00
2023-01-13T08:58:14.153Z,96.00
2023-01-13T08:59:00.430Z,96.00
2023-01-13T09:00:00.444Z,92.00
2023-01-13T09:00:59.539Z,96.00
2023-01-13T09:01:59.606Z,104.00
2023-01-13T09:02:59.388Z,112.00
2023-01-13T09:03:59.444Z,128.00
2023-01-13T09:04:59.423Z,136.00
2023-01-13T09:05:59.370Z,148.00
2023-01-13T09:06:59.367Z,164.00
2023-01-13T09:07:59.328Z,156.00
2023-01-13T09:08:59.327Z,140.00
2023-01-13T09:09:59.328Z,116.00
2023-01-13T09:10:59.297Z,112.00
2023-01-13T09:11:59.290Z,92.00
2023-01-13T09:12:59.305Z,80.00
2023-01-13T09:13:59.273Z,84.00
2023-01-13T09:14:59.317Z,108.00
2023-01-13T09:15:59.337Z,148.00
2023-01-13T09:16:59.240Z,192.00
2023-01-13T09:18:00.223Z,236.00
2023-01-13T09:18:59.216Z,264.00
2023-01-13T09:19:59.196Z,284.00
2023-01-13T09:20:59.207Z,308.00
2023-01-13T09:21:59.177Z,328.00
2023-01-13T09:22:59.192Z,328.00
2023-01-13T09:23:59.677Z,316.00
2023-01-13T09:24:59.145Z,272.00
2023-01-13T09:25:59.132Z,192.00
2023-01-13T09:26:59.116Z,132.00
2023-01-13T09:27:59.110Z,104.00
2023-01-13T09:28:59.110Z,88.00
2023-01-13T09:29:59.106Z,80.00
2023-01-13T09:30:59.096Z,72.00
2023-01-13T09:31:59.105Z,64.00
2023-01-13T09:32:59.074Z,56.00
2023-01-13T09:33:59.047Z,60.00
2023-01-13T09:34:59.026Z,68.00
2023-01-13T09:35:59.061Z,80.00
2023-01-13T09:36:59.021Z,92.00
2023-01-13T09:37:59.056Z,96.00
2023-01-13T09:38:59.027Z,88.00
2023-01-13T09:39:58.978Z,88.00
2023-01-13T09:40:58.989Z,84.00
2023-01-13T09:41:58.946Z,84.00
2023-01-13T09:42:58.941Z,88.00
2023-01-13T09:43:58.983Z,92.00
2023-01-13T09:44:58.936Z,96.00
2023-01-13T09:45:58.969Z,104.00
2023-01-13T09:46:59.888Z,104.00
2023-01-13T09:47:58.910Z,108.00
2023-01-13T09:48:58.878Z,116.00
2023-01-13T09:49:59.870Z,112.00
2023-01-13T09:50:58.928Z,108.00
2023-01-13T09:51:58.856Z,104.00
2023-01-13T09:52:59.825Z,104.00
2023-01-13T09:53:59.810Z,108.00
2023-01-13T09:54:58.838Z,104.00
2023-01-13T09:55:58.823Z,108.00
2023-01-13T09:56:58.779Z,108.00
2023-01-13T09:57:58.776Z,116.00
2023-01-13T09:58:58.789Z,124.00
2023-01-13T09:59:58.757Z,132.00
2023-01-13T10:00:59.790Z,140.00
2023-01-13T10:01:59.737Z,152.00
2023-01-13T10:02:59.732Z,164.00
2023-01-13T10:03:58.740Z,180.00
2023-01-13T10:04:58.816Z,196.00
2023-01-13T10:05:59.693Z,224.00
2023-01-13T10:06:58.739Z,244.00
2023-01-13T10:07:58.680Z,264.00
2023-01-13T10:08:58.678Z,288.00
2023-01-13T10:09:58.650Z,308.00
2023-01-13T10:10:58.657Z,320.00
2023-01-13T10:11:58.616Z,324.00
2023-01-13T10:12:59.640Z,320.00
2023-01-13T10:13:58.622Z,320.00
2023-01-13T10:14:58.602Z,328.00
2023-01-13T10:16:02.749Z,380.00
2023-01-13T10:16:58.562Z,320.00
2023-01-13T10:17:58.551Z,304.00
2023-01-13T10:18:59.588Z,288.00
2023-01-13T10:19:58.648Z,276.00
2023-01-13T10:20:58.522Z,284.00
2023-01-13T10:21:58.533Z,432.00
2023-01-13T10:22:59.494Z,368.00
2023-01-13T10:23:59.507Z,496.00
2023-01-13T10:24:59.522Z,492.00
2023-01-13T10:25:59.528Z,480.00
2023-01-13T10:26:59.541Z,476.00
2023-01-13T10:27:58.469Z,476.00
2023-01-13T10:28:58.447Z,476.00
2023-01-13T10:29:58.437Z,452.00
2023-01-13T10:30:58.485Z,372.00
2023-01-13T10:31:58.410Z,420.00
2023-01-13T10:32:58.412Z,484.00
2023-01-13T10:33:58.406Z,484.00
2023-01-13T10:34:59.373Z,480.00
2023-01-13T10:35:58.401Z,480.00
2023-01-13T10:36:58.364Z,476.00
2023-01-13T10:37:58.336Z,472.00
2023-01-13T10:38:58.333Z,316.00
2023-01-13T10:39:58.347Z,236.00
2023-01-13T10:40:58.355Z,284.00
2023-01-13T10:41:58.310Z,420.00
2023-01-13T10:42:59.287Z,320.00
2023-01-13T10:43:58.286Z,252.00
2023-01-13T10:44:58.278Z,312.00
2023-01-13T10:45:58.272Z,340.00
2023-01-13T10:46:58.247Z,244.00
2023-01-13T10:47:58.232Z,244.00
2023-01-13T10:48:58.220Z,232.00
2023-01-13T10:49:58.223Z,228.00
2023-01-13T10:50:58.230Z,336.00
2023-01-13T10:51:58.281Z,324.00
2023-01-13T10:52:58.191Z,228.00
2023-01-13T10:53:59.191Z,292.00
2023-01-13T10:54:58.159Z,408.00
2023-01-13T10:55:58.148Z,288.00
2023-01-13T10:56:58.157Z,348.00
2023-01-13T10:57:58.146Z,444.00
2023-01-13T10:58:58.133Z,488.00
2023-01-13T10:59:58.107Z,496.00
2023-01-13T11:00:58.115Z,384.00
2023-01-13T11:01:58.118Z,440.00
2023-01-13T11:02:58.053Z,336.00
2023-01-13T11:03:58.064Z,464.00
2023-01-13T11:04:58.230Z,248.00
2023-01-13T11:05:58.033Z,264.00
2023-01-13T11:06:58.026Z,428.00
2023-01-13T11:07:58.055Z,452.00
2023-01-13T11:08:58.070Z,280.00
2023-01-13T11:09:57.998Z,248.00
2023-01-13T11:10:58.001Z,244.00
2023-01-13T11:11:57.992Z,396.00
2023-01-13T11:12:58.997Z,332.00
2023-01-13T11:13:57.952Z,288.00
2023-01-13T11:14:58.934Z,444.00
2023-01-13T11:15:57.988Z,260.00
2023-01-13T11:16:57.906Z,308.00
2023-01-13T11:17:57.924Z,392.00
2023-01-13T11:18:57.881Z,276.00
2023-01-13T11:19:57.906Z,392.00
2023-01-13T11:20:57.890Z,280.00
2023-01-13T11:21:57.863Z,276.00
2023-01-13T11:22:57.844Z,396.00
2023-01-13T11:23:57.852Z,296.00
2023-01-13T11:24:57.829Z,416.00
2023-01-13T11:25:57.821Z,388.00
2023-01-13T11:26:57.804Z,440.00
2023-01-13T11:27:57.772Z,228.00
2023-01-13T11:28:57.784Z,440.00
2023-01-13T11:29:57.780Z,440.00
2023-01-13T11:30:58.929Z,444.00
2023-01-13T11:31:57.738Z,440.00
2023-01-13T11:32:57.722Z,448.00
2023-01-13T11:33:57.721Z,448.00
2023-01-13T11:34:57.735Z,444.00
2023-01-13T11:35:57.700Z,448.00
2023-01-13T11:36:57.726Z,444.00
2023-01-13T11:37:58.673Z,456.00
2023-01-13T11:38:58.668Z,480.00
2023-01-13T11:39:57.714Z,444.00
2023-01-13T11:40:57.628Z,444.00
2023-01-13T11:41:57.637Z,448.00
2023-01-13T11:42:57.641Z,456.00
2023-01-13T11:43:57.635Z,432.00
2023-01-13T11:44:57.597Z,412.00
2023-01-13T11:45:57.602Z,248.00
2023-01-13T11:46:57.638Z,424.00
2023-01-13T11:47:58.580Z,424.00
2023-01-13T11:48:57.564Z,432.00
2023-01-13T11:49:57.538Z,428.00
2023-01-13T11:50:57.538Z,432.00
2023-01-13T11:51:58.510Z,436.00
2023-01-13T11:52:57.523Z,428.00
2023-01-13T11:53:57.510Z,420.00
2023-01-13T11:54:57.488Z,428.00
2023-01-13T11:55:57.477Z,448.00
2023-01-13T11:56:57.453Z,452.00
2023-01-13T11:57:57.467Z,440.00
2023-01-13T11:58:57.427Z,440.00
2023-01-13T11:59:58.416Z,456.00
2023-01-13T12:00:57.485Z,492.00
2023-01-13T12:01:57.442Z,520.00
2023-01-13T12:02:57.458Z,456.00
2023-01-13T12:03:58.428Z,492.00
2023-01-13T12:04:57.374Z,448.00
2023-01-13T12:05:57.363Z,452.00
2023-01-13T12:06:57.353Z,456.00
2023-01-13T12:07:58.364Z,504.00
2023-01-13T12:08:58.341Z,520.00
2023-01-13T12:09:58.323Z,356.00
2023-01-13T12:10:57.306Z,472.00
2023-01-13T12:11:57.334Z,488.00
2023-01-13T12:12:59.481Z,412.00
2023-01-13T12:13:58.280Z,364.00
2023-01-13T12:14:57.273Z,344.00
2023-01-13T12:15:57.277Z,324.00
2023-01-13T12:16:57.249Z,324.00
2023-01-13T12:17:58.221Z,332.00
2023-01-13T12:18:57.208Z,340.00
2023-01-13T12:19:57.210Z,460.00
2023-01-13T12:20:57.203Z,340.00
2023-01-13T12:21:57.183Z,320.00
2023-01-13T12:22:58.160Z,288.00
2023-01-13T12:23:57.146Z,260.00
2023-01-13T12:24:57.203Z,260.00
2023-01-13T12:25:57.141Z,216.00
2023-01-13T12:26:57.168Z,196.00
2023-01-13T12:27:57.135Z,180.00
2023-01-13T12:28:57.160Z,184.00
2023-01-13T12:29:58.195Z,168.00
2023-01-13T12:30:57.092Z,160.00
2023-01-13T12:31:57.139Z,148.00
2023-01-13T12:32:57.046Z,148.00
2023-01-13T12:33:57.064Z,164.00
2023-01-13T12:34:57.061Z,152.00
2023-01-13T12:35:57.059Z,140.00
2023-01-13T12:36:57.011Z,140.00
2023-01-13T12:37:57.007Z,136.00
2023-01-13T12:38:56.983Z,144.00
2023-01-13T12:39:56.988Z,144.00
2023-01-13T12:40:56.978Z,144.00
2023-01-13T12:41:56.960Z,152.00
2023-01-13T12:42:56.947Z,172.00
2023-01-13T12:43:56.959Z,180.00
2023-01-13T12:44:56.955Z,200.00
2023-01-13T12:45:57.937Z,236.00
2023-01-13T12:46:57.923Z,264.00
2023-01-13T12:47:56.885Z,288.00
2023-01-13T12:48:56.868Z,256.00
2023-01-13T12:49:56.881Z,224.00
2023-01-13T12:50:57.890Z,244.00
2023-01-13T12:51:56.856Z,276.00
2023-01-13T12:52:56.841Z,296.00
2023-01-13T12:53:56.835Z,308.00
2023-01-13T12:54:56.804Z,248.00
2023-01-13T12:55:57.829Z,204.00
2023-01-13T12:56:56.793Z,216.00
2023-01-13T12:57:56.777Z,448.00
2023-01-13T12:58:56.760Z,532.00
2023-01-13T12:59:56.775Z,528.00